sensor_id;sensor_type;location;lat;lon;timestamp;P1;durP1;ratioP1;P2;durP2;ratioP2
45893;SDS011;31603;51.148;16.932;2022-11-20T00:00:58;59.27;;;26.37;;
45893;SDS011;31603;51.148;16.932;2022-11-20T00:03:31;73.70;;;29.00;;
45893;SDS011;31603;51.148;16.932;2022-11-20T00:06:00;63.53;;;27.07;;
45893;SDS011;31603;51.148;16.932;2022-11-20T00:08:38;68.00;;;28.57;;
45893;SDS011;31603;51.148;16.932;2022-11-20T00:11:05;71.10;;;29.23;;
45893;SDS011;31603;51.148;16.932;2022-11-20T00:13:45;62.63;;;24.77;;
45893;SDS011;31603;51.148;16.932;2022-11-20T00:16:35;61.37;;;26.63;;
45893;SDS011;31603;51.148;16.932;2022-11-20T00:19:05;70.17;;;28.03;;
45893;SDS011;31603;51.148;16.932;2022-11-20T00:21:42;61.90;;;24.92;;
45893;SDS011;31603;51.148;16.932;2022-11-20T00:24:09;61.60;;;24.63;;
45893;SDS011;31603;51.148;16.932;2022-11-20T00:26:36;65.30;;;28.40;;
45893;SDS011;31603;51.148;16.932;2022-11-20T00:29:02;67.83;;;26.20;;
45893;SDS011;31603;51.148;16.932;2022-11-20T00:31:29;66.17;;;27.47;;
45893;SDS011;31603;51.148;16.932;2022-11-20T00:33:59;65.40;;;27.73;;
45893;SDS011;31603;51.148;16.932;2022-11-20T00:36:28;61.93;;;25.27;;
45893;SDS011;31603;51.148;16.932;2022-11-20T00:39:09;67.60;;;26.90;;
45893;SDS011;31603;51.148;16.932;2022-11-20T00:41:49;61.00;;;24.97;;
45893;SDS011;31603;51.148;16.932;2022-11-20T00:44:34;73.27;;;27.37;;
45893;SDS011;31603;51.148;16.932;2022-11-20T00:47:05;68.83;;;26.93;;
45893;SDS011;31603;51.148;16.932;2022-11-20T00:49:37;74.93;;;29.00;;
45893;SDS011;31603;51.148;16.932;2022-11-20T00:52:07;63.30;;;26.50;;
45893;SDS011;31603;51.148;16.932;2022-11-20T00:54:38;61.70;;;25.23;;
45893;SDS011;31603;51.148;16.932;2022-11-20T00:57:05;67.83;;;26.27;;
45893;SDS011;31603;51.148;16.932;2022-11-20T00:59:33;55.83;;;24.10;;
45893;SDS011;31603;51.148;16.932;2022-11-20T01:02:01;71.37;;;28.37;;
45893;SDS011;31603;51.148;16.932;2022-11-20T01:04:29;60.07;;;25.83;;
45893;SDS011;31603;51.148;16.932;2022-11-20T01:10:16;66.60;;;26.23;;
45893;SDS011;31603;51.148;16.932;2022-11-20T01:12:42;67.73;;;27.27;;
45893;SDS011;31603;51.148;16.932;2022-11-20T01:15:29;70.23;;;27.60;;
45893;SDS011;31603;51.148;16.932;2022-11-20T01:18:02;63.23;;;25.63;;
45893;SDS011;31603;51.148;16.932;2022-11-20T01:20:34;70.03;;;26.75;;
45893;SDS011;31603;51.148;16.932;2022-11-20T01:23:03;67.17;;;28.07;;
45893;SDS011;31603;51.148;16.932;2022-11-20T01:25:31;69.17;;;27.70;;
45893;SDS011;31603;51.148;16.932;2022-11-20T01:28:01;63.33;;;27.50;;
45893;SDS011;31603;51.148;16.932;2022-11-20T01:30:29;66.93;;;28.90;;
45893;SDS011;31603;51.148;16.932;2022-11-20T01:32:55;67.67;;;26.93;;
45893;SDS011;31603;51.148;16.932;2022-11-20T01:35:22;65.27;;;25.60;;
45893;SDS011;31603;51.148;16.932;2022-11-20T01:37:49;70.53;;;28.57;;
45893;SDS011;31603;51.148;16.932;2022-11-20T01:40:37;67.30;;;26.37;;
45893;SDS011;31603;51.148;16.932;2022-11-20T01:43:09;66.00;;;27.03;;
45893;SDS011;31603;51.148;16.932;2022-11-20T01:46:16;58.73;;;25.77;;
45893;SDS011;31603;51.148;16.932;2022-11-20T01:48:49;63.03;;;26.50;;
45893;SDS011;31603;51.148;16.932;2022-11-20T01:51:27;62.83;;;27.63;;
45893;SDS011;31603;51.148;16.932;2022-11-20T01:54:02;61.50;;;24.90;;
45893;SDS011;31603;51.148;16.932;2022-11-20T01:59:25;65.33;;;26.33;;
45893;SDS011;31603;51.148;16.932;2022-11-20T02:02:24;65.20;;;27.60;;
45893;SDS011;31603;51.148;16.932;2022-11-20T02:04:45;64.65;;;25.90;;
45893;SDS011;31603;51.148;16.932;2022-11-20T02:07:23;64.10;;;27.00;;
45893;SDS011;31603;51.148;16.932;2022-11-20T02:10:04;56.07;;;24.43;;
45893;SDS011;31603;51.148;16.932;2022-11-20T02:15:32;67.57;;;27.10;;
45893;SDS011;31603;51.148;16.932;2022-11-20T02:18:03;65.80;;;27.57;;
45893;SDS011;31603;51.148;16.932;2022-11-20T02:23:12;67.47;;;26.90;;
45893;SDS011;31603;51.148;16.932;2022-11-20T02:28:47;61.77;;;23.17;;
45893;SDS011;31603;51.148;16.932;2022-11-20T02:31:24;57.23;;;24.50;;
45893;SDS011;31603;51.148;16.932;2022-11-20T02:33:53;61.93;;;24.77;;
45893;SDS011;31603;51.148;16.932;2022-11-20T02:36:24;62.53;;;25.07;;
45893;SDS011;31603;51.148;16.932;2022-11-20T02:39:05;63.25;;;25.27;;
45893;SDS011;31603;51.148;16.932;2022-11-20T02:41:46;63.20;;;24.67;;
45893;SDS011;31603;51.148;16.932;2022-11-20T02:44:13;66.60;;;26.90;;
45893;SDS011;31603;51.148;16.932;2022-11-20T02:46:39;69.27;;;26.27;;
45893;SDS011;31603;51.148;16.932;2022-11-20T02:49:43;60.80;;;24.47;;
45893;SDS011;31603;51.148;16.932;2022-11-20T02:52:11;70.57;;;27.13;;
45893;SDS011;31603;51.148;16.932;2022-11-20T02:54:38;60.87;;;24.90;;
45893;SDS011;31603;51.148;16.932;2022-11-20T02:57:21;67.20;;;26.50;;
45893;SDS011;31603;51.148;16.932;2022-11-20T02:59:54;69.20;;;26.67;;
45893;SDS011;31603;51.148;16.932;2022-11-20T03:02:21;64.93;;;23.90;;
45893;SDS011;31603;51.148;16.932;2022-11-20T03:04:49;67.17;;;25.27;;
45893;SDS011;31603;51.148;16.932;2022-11-20T03:07:22;67.57;;;24.47;;
45893;SDS011;31603;51.148;16.932;2022-11-20T03:09:48;69.43;;;24.90;;
45893;SDS011;31603;51.148;16.932;2022-11-20T03:12:28;69.43;;;25.93;;
45893;SDS011;31603;51.148;16.932;2022-11-20T03:15:11;61.47;;;24.73;;
45893;SDS011;31603;51.148;16.932;2022-11-20T03:17:38;57.40;;;21.90;;
45893;SDS011;31603;51.148;16.932;2022-11-20T03:20:14;60.77;;;23.37;;
45893;SDS011;31603;51.148;16.932;2022-11-20T03:22:41;59.47;;;22.40;;
45893;SDS011;31603;51.148;16.932;2022-11-20T03:25:31;61.77;;;23.10;;
45893;SDS011;31603;51.148;16.932;2022-11-20T03:27:59;63.47;;;25.13;;
45893;SDS011;31603;51.148;16.932;2022-11-20T03:30:25;56.73;;;22.77;;
45893;SDS011;31603;51.148;16.932;2022-11-20T03:33:02;53.73;;;20.57;;
45893;SDS011;31603;51.148;16.932;2022-11-20T03:35:28;52.03;;;22.37;;
45893;SDS011;31603;51.148;16.932;2022-11-20T03:37:55;59.27;;;23.43;;
45893;SDS011;31603;51.148;16.932;2022-11-20T03:40:35;46.83;;;19.20;;
45893;SDS011;31603;51.148;16.932;2022-11-20T03:43:03;66.17;;;26.03;;
45893;SDS011;31603;51.148;16.932;2022-11-20T03:45:41;59.17;;;21.93;;
45893;SDS011;31603;51.148;16.932;2022-11-20T03:48:08;53.47;;;20.90;;
45893;SDS011;31603;51.148;16.932;2022-11-20T03:50:41;71.47;;;27.43;;
45893;SDS011;31603;51.148;16.932;2022-11-20T03:53:57;57.28;;;22.85;;
45893;SDS011;31603;51.148;16.932;2022-11-20T03:56:09;62.77;;;23.90;;
45893;SDS011;31603;51.148;16.932;2022-11-20T03:58:36;62.67;;;25.40;;
45893;SDS011;31603;51.148;16.932;2022-11-20T04:01:06;72.23;;;26.13;;
45893;SDS011;31603;51.148;16.932;2022-11-20T04:03:34;59.27;;;23.50;;
45893;SDS011;31603;51.148;16.932;2022-11-20T04:06:18;50.70;;;18.80;;
45893;SDS011;31603;51.148;16.932;2022-11-20T04:08:45;54.20;;;21.03;;
45893;SDS011;31603;51.148;16.932;2022-11-20T04:11:14;70.07;;;27.60;;
45893;SDS011;31603;51.148;16.932;2022-11-20T04:13:45;95.25;;;33.83;;
45893;SDS011;31603;51.148;16.932;2022-11-20T04:16:13;85.13;;;32.00;;
45893;SDS011;31603;51.148;16.932;2022-11-20T04:18:40;73.93;;;30.00;;
45893;SDS011;31603;51.148;16.932;2022-11-20T04:21:17;84.13;;;32.57;;
45893;SDS011;31603;51.148;16.932;2022-11-20T04:23:43;92.50;;;34.37;;
45893;SDS011;31603;51.148;16.932;2022-11-20T04:26:10;104.20;;;38.60;;
45893;SDS011;31603;51.148;16.932;2022-11-20T04:28:49;87.37;;;38.43;;
45893;SDS011;31603;51.148;16.932;2022-11-20T04:31:24;83.13;;;34.17;;
45893;SDS011;31603;51.148;16.932;2022-11-20T04:34:07;91.97;;;34.93;;
45893;SDS011;31603;51.148;16.932;2022-11-20T04:39:29;78.13;;;32.47;;
45893;SDS011;31603;51.148;16.932;2022-11-20T04:42:25;81.10;;;32.73;;
45893;SDS011;31603;51.148;16.932;2022-11-20T04:45:02;71.00;;;28.53;;
45893;SDS011;31603;51.148;16.932;2022-11-20T04:47:29;63.80;;;25.83;;
45893;SDS011;31603;51.148;16.932;2022-11-20T04:50:01;69.70;;;29.20;;
45893;SDS011;31603;51.148;16.932;2022-11-20T04:52:29;60.77;;;26.83;;
45893;SDS011;31603;51.148;16.932;2022-11-20T04:55:08;96.80;;;34.27;;
45893;SDS011;31603;51.148;16.932;2022-11-20T04:57:41;71.05;;;28.10;;
45893;SDS011;31603;51.148;16.932;2022-11-20T05:02:39;78.63;;;28.73;;
45893;SDS011;31603;51.148;16.932;2022-11-20T05:05:07;66.87;;;27.63;;
45893;SDS011;31603;51.148;16.932;2022-11-20T05:07:34;71.77;;;27.83;;
45893;SDS011;31603;51.148;16.932;2022-11-20T05:10:00;67.10;;;27.90;;
45893;SDS011;31603;51.148;16.932;2022-11-20T05:12:28;68.07;;;28.70;;
45893;SDS011;31603;51.148;16.932;2022-11-20T05:15:10;64.80;;;26.30;;
45893;SDS011;31603;51.148;16.932;2022-11-20T05:17:50;63.43;;;23.63;;
45893;SDS011;31603;51.148;16.932;2022-11-20T05:20:38;75.77;;;30.13;;
45893;SDS011;31603;51.148;16.932;2022-11-20T05:23:08;104.60;;;46.63;;
45893;SDS011;31603;51.148;16.932;2022-11-20T05:25:38;86.73;;;35.17;;
45893;SDS011;31603;51.148;16.932;2022-11-20T05:28:10;84.23;;;34.53;;
45893;SDS011;31603;51.148;16.932;2022-11-20T05:30:41;68.83;;;29.57;;
45893;SDS011;31603;51.148;16.932;2022-11-20T05:33:26;69.68;;;29.42;;
45893;SDS011;31603;51.148;16.932;2022-11-20T05:35:53;71.43;;;29.83;;
45893;SDS011;31603;51.148;16.932;2022-11-20T05:38:23;80.63;;;30.73;;
45893;SDS011;31603;51.148;16.932;2022-11-20T05:40:50;74.13;;;30.23;;
45893;SDS011;31603;51.148;16.932;2022-11-20T05:43:16;84.27;;;35.03;;
45893;SDS011;31603;51.148;16.932;2022-11-20T05:45:56;76.57;;;30.00;;
45893;SDS011;31603;51.148;16.932;2022-11-20T05:48:24;74.37;;;32.10;;
45893;SDS011;31603;51.148;16.932;2022-11-20T05:50:50;66.93;;;28.20;;
45893;SDS011;31603;51.148;16.932;2022-11-20T05:53:19;73.87;;;31.37;;
45893;SDS011;31603;51.148;16.932;2022-11-20T05:55:57;77.57;;;30.90;;
45893;SDS011;31603;51.148;16.932;2022-11-20T05:58:24;72.60;;;30.93;;
45893;SDS011;31603;51.148;16.932;2022-11-20T06:00:51;69.50;;;30.23;;
45893;SDS011;31603;51.148;16.932;2022-11-20T06:03:27;81.80;;;31.23;;
45893;SDS011;31603;51.148;16.932;2022-11-20T06:05:53;66.13;;;27.43;;
45893;SDS011;31603;51.148;16.932;2022-11-20T06:08:32;74.77;;;30.00;;
45893;SDS011;31603;51.148;16.932;2022-11-20T06:11:04;72.77;;;29.90;;
45893;SDS011;31603;51.148;16.932;2022-11-20T06:13:41;62.20;;;27.83;;
45893;SDS011;31603;51.148;16.932;2022-11-20T06:16:13;65.67;;;27.33;;
45893;SDS011;31603;51.148;16.932;2022-11-20T06:18:50;70.55;;;28.17;;
45893;SDS011;31603;51.148;16.932;2022-11-20T06:21:22;66.93;;;29.63;;
45893;SDS011;31603;51.148;16.932;2022-11-20T06:23:50;87.90;;;33.17;;
45893;SDS011;31603;51.148;16.932;2022-11-20T06:26:18;79.20;;;31.60;;
45893;SDS011;31603;51.148;16.932;2022-11-20T06:28:46;78.50;;;31.23;;
45893;SDS011;31603;51.148;16.932;2022-11-20T06:31:15;84.47;;;32.73;;
45893;SDS011;31603;51.148;16.932;2022-11-20T06:33:47;77.30;;;31.10;;
45893;SDS011;31603;51.148;16.932;2022-11-20T06:36:15;74.83;;;29.50;;
45893;SDS011;31603;51.148;16.932;2022-11-20T06:38:43;74.73;;;27.07;;
45893;SDS011;31603;51.148;16.932;2022-11-20T06:41:23;76.67;;;30.30;;
45893;SDS011;31603;51.148;16.932;2022-11-20T06:43:50;79.60;;;32.53;;
45893;SDS011;31603;51.148;16.932;2022-11-20T06:46:22;77.13;;;32.07;;
45893;SDS011;31603;51.148;16.932;2022-11-20T06:48:50;80.27;;;33.90;;
45893;SDS011;31603;51.148;16.932;2022-11-20T06:51:30;93.57;;;37.30;;
45893;SDS011;31603;51.148;16.932;2022-11-20T06:53:58;86.30;;;35.87;;
45893;SDS011;31603;51.148;16.932;2022-11-20T06:56:25;109.17;;;41.80;;
45893;SDS011;31603;51.148;16.932;2022-11-20T06:59:03;94.93;;;37.27;;
45893;SDS011;31603;51.148;16.932;2022-11-20T07:01:38;87.27;;;36.90;;
45893;SDS011;31603;51.148;16.932;2022-11-20T07:04:07;84.33;;;33.77;;
45893;SDS011;31603;51.148;16.932;2022-11-20T07:06:41;101.00;;;39.33;;
45893;SDS011;31603;51.148;16.932;2022-11-20T07:09:23;98.18;;;41.55;;
45893;SDS011;31603;51.148;16.932;2022-11-20T07:11:49;94.63;;;40.37;;
45893;SDS011;31603;51.148;16.932;2022-11-20T07:14:23;89.40;;;36.17;;
45893;SDS011;31603;51.148;16.932;2022-11-20T07:16:57;87.77;;;35.90;;
45893;SDS011;31603;51.148;16.932;2022-11-20T07:19:25;84.40;;;34.13;;
45893;SDS011;31603;51.148;16.932;2022-11-20T07:21:52;78.73;;;35.33;;
45893;SDS011;31603;51.148;16.932;2022-11-20T07:24:19;88.77;;;34.63;;
45893;SDS011;31603;51.148;16.932;2022-11-20T07:26:53;85.23;;;36.40;;
45893;SDS011;31603;51.148;16.932;2022-11-20T07:29:25;86.53;;;34.23;;
45893;SDS011;31603;51.148;16.932;2022-11-20T07:31:57;82.15;;;34.97;;
45893;SDS011;31603;51.148;16.932;2022-11-20T07:34:25;76.53;;;31.13;;
45893;SDS011;31603;51.148;16.932;2022-11-20T07:36:52;86.17;;;32.90;;
45893;SDS011;31603;51.148;16.932;2022-11-20T07:39:25;83.33;;;35.53;;
45893;SDS011;31603;51.148;16.932;2022-11-20T07:41:53;80.33;;;34.53;;
45893;SDS011;31603;51.148;16.932;2022-11-20T07:44:25;83.40;;;37.73;;
45893;SDS011;31603;51.148;16.932;2022-11-20T07:47:02;83.97;;;38.60;;
45893;SDS011;31603;51.148;16.932;2022-11-20T07:49:29;87.80;;;39.70;;
45893;SDS011;31603;51.148;16.932;2022-11-20T07:51:58;80.97;;;35.13;;
45893;SDS011;31603;51.148;16.932;2022-11-20T07:54:42;77.40;;;34.97;;
45893;SDS011;31603;51.148;16.932;2022-11-20T07:58:56;74.38;;;33.45;;
45893;SDS011;31603;51.148;16.932;2022-11-20T08:00:07;73.10;;;33.53;;
45893;SDS011;31603;51.148;16.932;2022-11-20T08:02:42;70.38;;;30.13;;
45893;SDS011;31603;51.148;16.932;2022-11-20T08:05:10;56.80;;;25.88;;
45893;SDS011;31603;51.148;16.932;2022-11-20T08:07:37;57.05;;;26.55;;
45893;SDS011;31603;51.148;16.932;2022-11-20T08:10:04;57.55;;;24.40;;
45893;SDS011;31603;51.148;16.932;2022-11-20T08:12:59;52.22;;;24.08;;
45893;SDS011;31603;51.148;16.932;2022-11-20T08:15:47;54.00;;;23.33;;
45893;SDS011;31603;51.148;16.932;2022-11-20T08:18:22;52.40;;;23.25;;
45893;SDS011;31603;51.148;16.932;2022-11-20T08:20:50;56.60;;;25.20;;
45893;SDS011;31603;51.148;16.932;2022-11-20T08:23:17;57.85;;;25.95;;
45893;SDS011;31603;51.148;16.932;2022-11-20T08:25:59;50.03;;;22.88;;
45893;SDS011;31603;51.148;16.932;2022-11-20T08:28:45;53.03;;;22.58;;
45893;SDS011;31603;51.148;16.932;2022-11-20T08:31:14;50.13;;;24.25;;
45893;SDS011;31603;51.148;16.932;2022-11-20T08:33:43;55.50;;;26.52;;
45893;SDS011;31603;51.148;16.932;2022-11-20T08:36:14;53.65;;;24.42;;
45893;SDS011;31603;51.148;16.932;2022-11-20T08:38:40;49.35;;;22.73;;
45893;SDS011;31603;51.148;16.932;2022-11-20T08:41:07;52.13;;;23.17;;
45893;SDS011;31603;51.148;16.932;2022-11-20T08:43:55;55.60;;;23.88;;
45893;SDS011;31603;51.148;16.932;2022-11-20T08:46:23;51.70;;;22.30;;
45893;SDS011;31603;51.148;16.932;2022-11-20T08:49:04;46.20;;;21.70;;
45893;SDS011;31603;51.148;16.932;2022-11-20T08:51:33;47.28;;;23.17;;
45893;SDS011;31603;51.148;16.932;2022-11-20T08:54:03;47.47;;;21.67;;
45893;SDS011;31603;51.148;16.932;2022-11-20T08:56:37;44.80;;;22.38;;
45893;SDS011;31603;51.148;16.932;2022-11-20T08:59:04;46.20;;;21.67;;
45893;SDS011;31603;51.148;16.932;2022-11-20T09:01:40;45.35;;;20.65;;
45893;SDS011;31603;51.148;16.932;2022-11-20T09:04:15;46.03;;;20.80;;
45893;SDS011;31603;51.148;16.932;2022-11-20T09:06:42;46.67;;;21.63;;
45893;SDS011;31603;51.148;16.932;2022-11-20T09:09:09;39.53;;;19.88;;
45893;SDS011;31603;51.148;16.932;2022-11-20T09:11:35;42.63;;;18.13;;
45893;SDS011;31603;51.148;16.932;2022-11-20T09:14:04;48.75;;;22.02;;
45893;SDS011;31603;51.148;16.932;2022-11-20T09:16:32;48.10;;;20.87;;
45893;SDS011;31603;51.148;16.932;2022-11-20T09:19:03;47.63;;;21.20;;
45893;SDS011;31603;51.148;16.932;2022-11-20T09:21:36;44.40;;;20.88;;
45893;SDS011;31603;51.148;16.932;2022-11-20T09:24:08;46.38;;;22.23;;
45893;SDS011;31603;51.148;16.932;2022-11-20T09:26:36;47.20;;;21.10;;
45893;SDS011;31603;51.148;16.932;2022-11-20T09:29:06;44.67;;;21.23;;
45893;SDS011;31603;51.148;16.932;2022-11-20T09:31:32;40.47;;;18.50;;
45893;SDS011;31603;51.148;16.932;2022-11-20T09:34:14;42.92;;;18.90;;
45893;SDS011;31603;51.148;16.932;2022-11-20T09:36:56;36.80;;;16.87;;
45893;SDS011;31603;51.148;16.932;2022-11-20T09:39:23;37.60;;;17.67;;
45893;SDS011;31603;51.148;16.932;2022-11-20T09:44:57;36.65;;;17.52;;
45893;SDS011;31603;51.148;16.932;2022-11-20T09:47:35;39.15;;;17.88;;
45893;SDS011;31603;51.148;16.932;2022-11-20T09:50:23;39.45;;;19.00;;
45893;SDS011;31603;51.148;16.932;2022-11-20T09:53:01;33.45;;;16.50;;
45893;SDS011;31603;51.148;16.932;2022-11-20T09:55:38;32.40;;;16.02;;
45893;SDS011;31603;51.148;16.932;2022-11-20T09:58:05;36.20;;;17.83;;
45893;SDS011;31603;51.148;16.932;2022-11-20T10:03:35;39.20;;;15.57;;
45893;SDS011;31603;51.148;16.932;2022-11-20T10:06:13;38.63;;;17.35;;
45893;SDS011;31603;51.148;16.932;2022-11-20T10:08:47;31.40;;;15.50;;
45893;SDS011;31603;51.148;16.932;2022-11-20T10:11:24;32.60;;;15.90;;
45893;SDS011;31603;51.148;16.932;2022-11-20T10:14:00;38.05;;;17.02;;
45893;SDS011;31603;51.148;16.932;2022-11-20T10:16:58;32.20;;;16.40;;
45893;SDS011;31603;51.148;16.932;2022-11-20T10:19:41;31.27;;;14.93;;
45893;SDS011;31603;51.148;16.932;2022-11-20T10:22:22;30.05;;;15.80;;
45893;SDS011;31603;51.148;16.932;2022-11-20T10:25:45;34.17;;;16.42;;
45893;SDS011;31603;51.148;16.932;2022-11-20T10:31:08;33.35;;;15.50;;
45893;SDS011;31603;51.148;16.932;2022-11-20T10:34:27;32.63;;;15.77;;
45893;SDS011;31603;51.148;16.932;2022-11-20T10:36:55;35.92;;;16.90;;
45893;SDS011;31603;51.148;16.932;2022-11-20T10:39:26;30.92;;;14.55;;
45893;SDS011;31603;51.148;16.932;2022-11-20T10:42:02;33.67;;;14.93;;
45893;SDS011;31603;51.148;16.932;2022-11-20T10:44:46;28.58;;;14.98;;
45893;SDS011;31603;51.148;16.932;2022-11-20T10:47:34;29.35;;;15.50;;
45893;SDS011;31603;51.148;16.932;2022-11-20T10:50:05;30.85;;;15.10;;
45893;SDS011;31603;51.148;16.932;2022-11-20T10:52:48;21.85;;;12.07;;
45893;SDS011;31603;51.148;16.932;2022-11-20T10:55:33;22.75;;;13.48;;
45893;SDS011;31603;51.148;16.932;2022-11-20T10:58:28;24.35;;;13.07;;
45893;SDS011;31603;51.148;16.932;2022-11-20T11:01:11;22.45;;;12.32;;
45893;SDS011;31603;51.148;16.932;2022-11-20T11:03:55;24.10;;;12.00;;
45893;SDS011;31603;51.148;16.932;2022-11-20T11:06:36;21.15;;;11.02;;
45893;SDS011;31603;51.148;16.932;2022-11-20T11:09:30;23.63;;;12.77;;
45893;SDS011;31603;51.148;16.932;2022-11-20T11:12:19;22.65;;;11.85;;
45893;SDS011;31603;51.148;16.932;2022-11-20T11:15:11;22.15;;;11.77;;
45893;SDS011;31603;51.148;16.932;2022-11-20T11:18:07;21.38;;;11.50;;
45893;SDS011;31603;51.148;16.932;2022-11-20T11:20:35;21.10;;;12.95;;
45893;SDS011;31603;51.148;16.932;2022-11-20T11:23:01;21.65;;;12.07;;
45893;SDS011;31603;51.148;16.932;2022-11-20T11:25:40;24.27;;;11.55;;
45893;SDS011;31603;51.148;16.932;2022-11-20T11:28:20;23.40;;;12.35;;
45893;SDS011;31603;51.148;16.932;2022-11-20T11:31:18;21.90;;;11.65;;
45893;SDS011;31603;51.148;16.932;2022-11-20T11:34:02;23.70;;;12.23;;
45893;SDS011;31603;51.148;16.932;2022-11-20T11:39:21;21.50;;;11.27;;
45893;SDS011;31603;51.148;16.932;2022-11-20T11:41:48;24.60;;;12.23;;
45893;SDS011;31603;51.148;16.932;2022-11-20T11:44:17;22.42;;;12.00;;
45893;SDS011;31603;51.148;16.932;2022-11-20T11:47:21;25.13;;;12.25;;
45893;SDS011;31603;51.148;16.932;2022-11-20T11:52:53;25.17;;;13.32;;
45893;SDS011;31603;51.148;16.932;2022-11-20T11:55:30;25.73;;;14.02;;
45893;SDS011;31603;51.148;16.932;2022-11-20T11:58:20;24.63;;;12.07;;
45893;SDS011;31603;51.148;16.932;2022-11-20T12:01:11;27.27;;;13.98;;
45893;SDS011;31603;51.148;16.932;2022-11-20T12:04:03;25.00;;;13.13;;
45893;SDS011;31603;51.148;16.932;2022-11-20T12:06:37;23.05;;;12.13;;
45893;SDS011;31603;51.148;16.932;2022-11-20T12:09:08;24.77;;;13.48;;
45893;SDS011;31603;51.148;16.932;2022-11-20T12:11:46;21.98;;;12.50;;
45893;SDS011;31603;51.148;16.932;2022-11-20T12:14:21;27.20;;;13.98;;
45893;SDS011;31603;51.148;16.932;2022-11-20T12:16:56;21.05;;;12.35;;
45893;SDS011;31603;51.148;16.932;2022-11-20T12:19:23;23.33;;;12.48;;
45893;SDS011;31603;51.148;16.932;2022-11-20T12:22:06;26.70;;;13.93;;
45893;SDS011;31603;51.148;16.932;2022-11-20T12:24:59;24.08;;;13.27;;
45893;SDS011;31603;51.148;16.932;2022-11-20T12:27:52;21.70;;;11.48;;
45893;SDS011;31603;51.148;16.932;2022-11-20T12:30:41;21.33;;;11.48;;
45893;SDS011;31603;51.148;16.932;2022-11-20T12:37:00;23.77;;;12.70;;
45893;SDS011;31603;51.148;16.932;2022-11-20T12:39:57;26.20;;;12.82;;
45893;SDS011;31603;51.148;16.932;2022-11-20T12:42:31;24.83;;;12.25;;
45893;SDS011;31603;51.148;16.932;2022-11-20T12:49:32;25.83;;;13.90;;
45893;SDS011;31603;51.148;16.932;2022-11-20T12:52:22;24.58;;;12.63;;
45893;SDS011;31603;51.148;16.932;2022-11-20T12:55:23;26.05;;;12.95;;
45893;SDS011;31603;51.148;16.932;2022-11-20T12:58:08;26.30;;;13.70;;
45893;SDS011;31603;51.148;16.932;2022-11-20T13:00:55;25.17;;;13.05;;
45893;SDS011;31603;51.148;16.932;2022-11-20T13:03:44;23.45;;;12.10;;
45893;SDS011;31603;51.148;16.932;2022-11-20T13:06:21;26.25;;;14.15;;
45893;SDS011;31603;51.148;16.932;2022-11-20T13:08:52;23.38;;;12.80;;
45893;SDS011;31603;51.148;16.932;2022-11-20T13:11:24;24.75;;;13.10;;
45893;SDS011;31603;51.148;16.932;2022-11-20T13:14:26;22.60;;;11.70;;
45893;SDS011;31603;51.148;16.932;2022-11-20T13:17:05;24.52;;;13.20;;
45893;SDS011;31603;51.148;16.932;2022-11-20T13:22:07;31.07;;;14.23;;
45893;SDS011;31603;51.148;16.932;2022-11-20T13:24:58;26.05;;;12.30;;
45893;SDS011;31603;51.148;16.932;2022-11-20T13:27:26;23.15;;;12.57;;
45893;SDS011;31603;51.148;16.932;2022-11-20T13:30:11;25.47;;;12.57;;
45893;SDS011;31603;51.148;16.932;2022-11-20T13:32:52;23.30;;;12.25;;
45893;SDS011;31603;51.148;16.932;2022-11-20T13:35:24;21.75;;;12.05;;
45893;SDS011;31603;51.148;16.932;2022-11-20T13:38:18;21.13;;;11.63;;
45893;SDS011;31603;51.148;16.932;2022-11-20T13:40:51;21.17;;;11.63;;
45893;SDS011;31603;51.148;16.932;2022-11-20T13:43:27;21.58;;;11.77;;
45893;SDS011;31603;51.148;16.932;2022-11-20T13:47:37;23.65;;;12.23;;
45893;SDS011;31603;51.148;16.932;2022-11-20T13:48:53;20.60;;;11.30;;
45893;SDS011;31603;51.148;16.932;2022-11-20T13:51:27;20.92;;;11.07;;
45893;SDS011;31603;51.148;16.932;2022-11-20T14:00:17;25.58;;;13.60;;
45893;SDS011;31603;51.148;16.932;2022-11-20T14:03:01;23.05;;;12.73;;
45893;SDS011;31603;51.148;16.932;2022-11-20T14:05:45;23.38;;;11.77;;
45893;SDS011;31603;51.148;16.932;2022-11-20T14:08:19;22.67;;;12.63;;
45893;SDS011;31603;51.148;16.932;2022-11-20T14:11:19;22.73;;;12.68;;
45893;SDS011;31603;51.148;16.932;2022-11-20T14:13:54;22.40;;;11.13;;
45893;SDS011;31603;51.148;16.932;2022-11-20T14:16:51;24.05;;;11.63;;
45893;SDS011;31603;51.148;16.932;2022-11-20T14:19:37;23.70;;;11.77;;
45893;SDS011;31603;51.148;16.932;2022-11-20T14:22:26;26.50;;;12.82;;
45893;SDS011;31603;51.148;16.932;2022-11-20T14:25:02;21.52;;;10.38;;
45893;SDS011;31603;51.148;16.932;2022-11-20T14:27:32;22.45;;;11.63;;
45893;SDS011;31603;51.148;16.932;2022-11-20T14:30:22;23.05;;;12.02;;
45893;SDS011;31603;51.148;16.932;2022-11-20T14:32:57;25.98;;;12.05;;
45893;SDS011;31603;51.148;16.932;2022-11-20T14:35:29;24.60;;;11.85;;
45893;SDS011;31603;51.148;16.932;2022-11-20T14:38:09;27.50;;;13.13;;
45893;SDS011;31603;51.148;16.932;2022-11-20T14:41:29;28.30;;;11.63;;
45893;SDS011;31603;51.148;16.932;2022-11-20T14:43:59;26.20;;;12.18;;
45893;SDS011;31603;51.148;16.932;2022-11-20T14:46:30;33.25;;;14.45;;
45893;SDS011;31603;51.148;16.932;2022-11-20T14:52:37;42.33;;;14.10;;
45893;SDS011;31603;51.148;16.932;2022-11-20T14:55:04;52.58;;;16.23;;
45893;SDS011;31603;51.148;16.932;2022-11-20T14:57:54;30.77;;;13.82;;
45893;SDS011;31603;51.148;16.932;2022-11-20T15:00:44;35.58;;;13.68;;
45893;SDS011;31603;51.148;16.932;2022-11-20T15:03:30;38.03;;;14.35;;
45893;SDS011;31603;51.148;16.932;2022-11-20T15:06:03;42.28;;;14.43;;
45893;SDS011;31603;51.148;16.932;2022-11-20T15:08:59;37.65;;;14.93;;
45893;SDS011;31603;51.148;16.932;2022-11-20T15:11:29;40.45;;;13.60;;
45893;SDS011;31603;51.148;16.932;2022-11-20T15:14:08;54.95;;;15.82;;
45893;SDS011;31603;51.148;16.932;2022-11-20T15:16:53;40.38;;;13.93;;
45893;SDS011;31603;51.148;16.932;2022-11-20T15:19:21;34.20;;;13.23;;
45893;SDS011;31603;51.148;16.932;2022-11-20T19:01:36;102.70;;;39.63;;
45893;SDS011;31603;51.148;16.932;2022-11-20T19:04:14;151.83;;;53.63;;
45893;SDS011;31603;51.148;16.932;2022-11-20T19:10:45;147.63;;;56.40;;
45893;SDS011;31603;51.148;16.932;2022-11-20T19:17:00;130.53;;;50.83;;
45893;SDS011;31603;51.148;16.932;2022-11-20T19:19:45;142.37;;;53.13;;
45893;SDS011;31603;51.148;16.932;2022-11-20T19:22:13;151.53;;;53.87;;
45893;SDS011;31603;51.148;16.932;2022-11-20T19:24:59;164.17;;;58.27;;
45893;SDS011;31603;51.148;16.932;2022-11-20T19:27:28;143.03;;;52.17;;
45893;SDS011;31603;51.148;16.932;2022-11-20T19:30:09;140.30;;;53.93;;
45893;SDS011;31603;51.148;16.932;2022-11-20T19:36:49;120.23;;;42.37;;
45893;SDS011;31603;51.148;16.932;2022-11-20T19:39:26;110.37;;;42.07;;
45893;SDS011;31603;51.148;16.932;2022-11-20T19:41:55;112.60;;;43.77;;
45893;SDS011;31603;51.148;16.932;2022-11-20T19:44:22;117.77;;;42.80;;